createdAt,value
2019-02-09T00:00:50.559Z,74.50
2019-02-09T00:01:55.737Z,74.50
2019-02-09T00:03:00.880Z,74.40
2019-02-09T00:04:06.208Z,74.40
2019-02-09T00:05:11.393Z,74.40
2019-02-09T00:06:16.647Z,74.20
2019-02-09T00:07:21.736Z,74.30
2019-02-09T00:08:26.911Z,74.30
2019-02-09T00:09:32.040Z,74.20
2019-02-09T00:10:37.061Z,74.40
2019-02-09T00:11:42.170Z,74.40
2019-02-09T00:12:47.238Z,74.70
2019-02-09T00:13:52.366Z,74.20
2019-02-09T00:14:57.369Z,74.40
2019-02-09T00:16:02.512Z,74.50
2019-02-09T00:17:07.523Z,74.40
2019-02-09T00:18:13.501Z,74.30
2019-02-09T00:19:18.594Z,74.40
2019-02-09T00:20:23.626Z,74.50
2019-02-09T00:21:28.652Z,74.60
2019-02-09T00:22:33.704Z,74.80
2019-02-09T00:23:38.981Z,74.60
2019-02-09T00:24:43.987Z,74.50
2019-02-09T00:25:49.088Z,74.50
2019-02-09T00:26:54.192Z,74.30
2019-02-09T00:27:59.208Z,74.30
2019-02-09T00:29:04.351Z,74.40
2019-02-09T00:30:09.972Z,74.40
2019-02-09T00:31:15.058Z,74.30
2019-02-09T00:32:20.081Z,74.40
2019-02-09T00:33:25.097Z,74.40
2019-02-09T00:34:30.144Z,74.40
2019-02-09T00:35:35.390Z,75.00
2019-02-09T00:36:40.481Z,74.50
2019-02-09T00:37:45.569Z,74.70
2019-02-09T00:38:50.607Z,74.70
2019-02-09T00:39:55.733Z,74.70
2019-02-09T00:41:00.729Z,74.80
2019-02-09T00:42:05.872Z,74.70
2019-02-09T00:43:10.906Z,74.60
2019-02-09T00:44:15.941Z,74.60
2019-02-09T00:45:21.047Z,74.80
2019-02-09T00:46:26.137Z,74.60
2019-02-09T00:47:31.136Z,74.50
2019-02-09T00:48:36.176Z,74.60
2019-02-09T00:49:41.248Z,74.70
2019-02-09T00:50:46.276Z,74.80
2019-02-09T00:51:51.331Z,74.70
2019-02-09T00:52:56.428Z,74.70
2019-02-09T00:54:01.448Z,74.60
2019-02-09T00:55:07.653Z,74.80
2019-02-09T00:56:12.745Z,74.80
2019-02-09T00:57:17.848Z,74.70
2019-02-09T00:58:22.950Z,74.70
2019-02-09T00:59:27.972Z,74.60
2019-02-09T01:00:33.193Z,74.60
2019-02-09T01:01:38.297Z,74.40
2019-02-09T01:02:43.404Z,74.90
2019-02-09T01:03:48.488Z,74.60
2019-02-09T01:04:53.701Z,74.70
2019-02-09T01:05:58.805Z,74.60
2019-02-09T01:07:04.076Z,74.50
2019-02-09T01:08:09.356Z,74.30
2019-02-09T01:09:14.471Z,74.30
2019-02-09T01:10:19.962Z,74.20
2019-02-09T01:11:26.073Z,74.10
2019-02-09T01:12:31.166Z,74.10
2019-02-09T01:13:36.164Z,74.10
2019-02-09T01:14:41.235Z,74.10
2019-02-09T01:15:46.316Z,74.00
2019-02-09T01:16:51.333Z,73.80
2019-02-09T01:17:56.877Z,73.90
2019-02-09T01:19:01.876Z,73.90
2019-02-09T01:20:08.436Z,73.80
2019-02-09T01:21:13.556Z,73.80
2019-02-09T01:22:18.642Z,73.80
2019-02-09T01:23:23.737Z,73.90
2019-02-09T01:24:28.768Z,73.90
2019-02-09T01:25:34.914Z,74.00
2019-02-09T01:26:40.267Z,74.10
2019-02-09T01:27:45.266Z,73.90
2019-02-09T01:28:50.346Z,73.90
2019-02-09T01:30:02.171Z,74.00
2019-02-09T01:31:02.184Z,73.40
2019-02-09T01:32:07.189Z,73.30
2019-02-09T01:33:12.204Z,73.40
2019-02-09T01:34:17.316Z,72.70
2019-02-09T01:35:22.423Z,72.40
2019-02-09T01:36:27.496Z,72.40
2019-02-09T01:37:32.516Z,72.20
2019-02-09T01:38:37.560Z,72.00
2019-02-09T01:39:42.670Z,71.80
2019-02-09T01:40:47.794Z,71.70
2019-02-09T01:41:52.839Z,71.20
2019-02-09T01:42:58.343Z,71.20
2019-02-09T01:44:03.393Z,71.60
2019-02-09T01:45:10.551Z,71.00
2019-02-09T01:46:15.738Z,70.90
2019-02-09T01:47:20.793Z,70.70
2019-02-09T01:48:25.795Z,70.80
2019-02-09T01:49:30.847Z,70.60
2019-02-09T01:50:35.858Z,70.50
2019-02-09T01:51:40.953Z,70.30
2019-02-09T01:52:46.049Z,70.00
2019-02-09T01:53:51.049Z,69.80
2019-02-09T01:54:56.131Z,69.60
2019-02-09T01:56:01.157Z,69.50
2019-02-09T01:57:06.171Z,69.80
2019-02-09T01:58:11.165Z,69.60
2019-02-09T01:59:16.260Z,69.20
2019-02-09T02:00:23.463Z,69.20
2019-02-09T02:01:28.655Z,69.00
2019-02-09T02:02:33.757Z,68.90
2019-02-09T02:03:38.776Z,68.40
2019-02-09T02:04:43.989Z,68.40
2019-02-09T02:05:49.086Z,69.00
2019-02-09T02:06:54.175Z,68.60
2019-02-09T02:07:59.317Z,68.40
2019-02-09T02:09:07.417Z,68.20
2019-02-09T02:10:17.052Z,68.00
2019-02-09T02:11:22.207Z,68.00
2019-02-09T02:12:27.241Z,68.40
2019-02-09T02:13:32.250Z,68.20
2019-02-09T02:14:37.386Z,68.00
2019-02-09T02:15:42.585Z,67.50
2019-02-09T02:16:47.689Z,67.80
2019-02-09T02:17:52.740Z,67.90
2019-02-09T02:18:57.890Z,68.00
2019-02-09T02:20:03.099Z,67.70
2019-02-09T02:21:19.691Z,67.60
2019-02-09T02:22:24.724Z,67.70
2019-02-09T02:23:29.841Z,67.70
2019-02-09T02:24:34.924Z,67.80
2019-02-09T02:25:40.058Z,67.50
2019-02-09T02:26:45.113Z,67.90
2019-02-09T02:27:50.162Z,67.70
2019-02-09T02:28:55.243Z,67.70
2019-02-09T02:30:00.369Z,67.70
2019-02-09T02:31:16.911Z,67.80
2019-02-09T02:32:33.780Z,67.60
2019-02-09T02:33:50.279Z,67.80
2019-02-09T02:35:07.538Z,67.70
2019-02-09T02:36:24.657Z,67.60
2019-02-09T02:37:41.518Z,67.60
2019-02-09T02:38:57.768Z,67.20
2019-02-09T02:40:14.282Z,67.30
2019-02-09T02:41:30.829Z,67.00
2019-02-09T02:42:47.339Z,66.70
2019-02-09T02:44:04.070Z,66.90
2019-02-09T02:45:20.420Z,66.70
2019-02-09T02:46:37.009Z,66.90
2019-02-09T02:47:53.413Z,66.10
2019-02-09T02:49:10.371Z,65.80
2019-02-09T02:50:27.009Z,65.70
2019-02-09T02:51:43.836Z,65.70
2019-02-09T02:53:00.481Z,65.40
2019-02-09T02:54:17.089Z,65.60
2019-02-09T02:55:32.256Z,65.50
2019-02-09T02:56:56.340Z,65.60
2019-02-09T02:58:12.736Z,65.10
2019-02-09T02:59:29.220Z,65.10
2019-02-09T03:00:45.849Z,64.80
2019-02-09T03:02:02.597Z,64.60
2019-02-09T03:03:19.112Z,64.80
2019-02-09T03:04:34.440Z,64.60
2019-02-09T03:05:58.525Z,64.90
2019-02-09T03:07:15.580Z,65.00
2019-02-09T03:08:32.034Z,64.70
2019-02-09T03:09:48.884Z,64.80
2019-02-09T03:11:05.324Z,64.60
2019-02-09T03:12:21.845Z,64.30
2019-02-09T03:13:39.057Z,64.90
2019-02-09T03:14:55.769Z,64.80
2019-02-09T03:16:12.203Z,65.20
2019-02-09T03:17:29.083Z,64.60
2019-02-09T03:18:45.580Z,64.60
2019-02-09T03:20:02.724Z,64.70
2019-02-09T03:21:19.154Z,65.00
2019-02-09T03:22:35.646Z,65.00
2019-02-09T03:23:52.042Z,65.10
2019-02-09T03:25:08.462Z,65.10
2019-02-09T03:26:25.091Z,65.40
2019-02-09T03:27:41.865Z,65.20
2019-02-09T03:28:58.571Z,65.40
2019-02-09T03:30:15.762Z,65.50
2019-02-09T03:31:32.322Z,65.60
2019-02-09T03:32:48.886Z,65.80
2019-02-09T03:34:05.528Z,65.90
2019-02-09T03:35:21.956Z,65.70
2019-02-09T03:36:38.566Z,65.80
2019-02-09T03:37:55.440Z,65.80
2019-02-09T03:39:10.580Z,65.80
2019-02-09T03:42:16.269Z,66.20
2019-02-09T03:43:32.782Z,66.20
2019-02-09T03:44:49.192Z,66.30
2019-02-09T03:46:05.989Z,66.40
2019-02-09T03:47:22.406Z,66.30
2019-02-09T03:48:38.869Z,66.60
2019-02-09T03:49:55.224Z,66.90
2019-02-09T03:51:12.143Z,67.40
2019-02-09T03:52:28.435Z,67.80
2019-02-09T03:53:44.881Z,68.20
2019-02-09T03:55:01.253Z,68.90
2019-02-09T03:56:17.622Z,69.30
2019-02-09T03:57:34.124Z,70.10
2019-02-09T03:58:50.815Z,71.10
2019-02-09T04:00:07.253Z,71.40
2019-02-09T04:01:23.654Z,72.50
2019-02-09T04:02:40.059Z,74.50
2019-02-09T04:03:56.852Z,75.40
2019-02-09T04:05:13.342Z,76.50
2019-02-09T04:06:30.462Z,77.10
2019-02-09T04:07:45.617Z,77.70
2019-02-09T04:09:09.772Z,77.80
2019-02-09T04:10:29.793Z,78.20
2019-02-09T04:11:46.315Z,78.00
2019-02-09T04:13:02.821Z,78.10
2019-02-09T04:14:19.198Z,78.10
2019-02-09T04:15:35.517Z,77.80
2019-02-09T04:16:52.227Z,77.80
2019-02-09T04:18:08.534Z,77.70
2019-02-09T04:19:24.981Z,77.70
2019-02-09T04:20:42.168Z,77.80
2019-02-09T04:21:59.149Z,78.50
2019-02-09T04:23:16.218Z,79.20
2019-02-09T04:24:32.516Z,79.80
2019-02-09T04:25:48.952Z,80.50
2019-02-09T04:27:05.488Z,81.20
2019-02-09T04:28:22.556Z,81.70
2019-02-09T04:29:39.032Z,82.20
2019-02-09T04:31:05.008Z,82.70
2019-02-09T04:32:14.174Z,83.00
2019-02-09T04:33:30.620Z,83.60
2019-02-09T04:34:47.118Z,84.10
2019-02-09T04:36:04.846Z,85.00
2019-02-09T04:37:21.211Z,85.70
2019-02-09T04:38:37.586Z,86.40
2019-02-09T04:39:53.792Z,87.10
2019-02-09T04:41:10.344Z,87.10
2019-02-09T04:42:26.932Z,87.80
2019-02-09T04:43:44.134Z,88.40
2019-02-09T04:45:00.616Z,88.30
2019-02-09T04:46:17.217Z,88.50
2019-02-09T04:47:34.211Z,88.70
2019-02-09T04:48:50.978Z,88.60
2019-02-09T04:50:07.948Z,88.70
2019-02-09T04:51:24.685Z,89.10
2019-02-09T04:52:41.936Z,89.30
2019-02-09T04:53:58.324Z,89.70
2019-02-09T04:55:15.476Z,89.70
2019-02-09T04:56:31.979Z,89.60
2019-02-09T04:57:49.159Z,89.70
2019-02-09T04:59:05.627Z,89.60
2019-02-09T05:00:22.265Z,89.50
2019-02-09T05:01:38.732Z,89.50
2019-02-09T05:02:55.061Z,89.70
2019-02-09T05:04:11.543Z,89.80
2019-02-09T05:05:27.902Z,89.90
2019-02-09T05:06:44.931Z,90.00
2019-02-09T05:08:01.487Z,90.20
2019-02-09T05:09:18.557Z,90.20
2019-02-09T05:10:35.016Z,90.40
2019-02-09T05:11:51.535Z,90.50
2019-02-09T05:13:08.119Z,90.70
2019-02-09T05:14:25.388Z,90.80
2019-02-09T05:15:42.329Z,91.00
2019-02-09T05:16:58.901Z,91.00
2019-02-09T05:18:15.345Z,91.40
2019-02-09T05:19:31.858Z,91.60
2019-02-09T05:20:48.823Z,91.50
2019-02-09T05:22:05.719Z,91.60
2019-02-09T05:23:22.338Z,91.70
2019-02-09T05:24:38.930Z,91.80
2019-02-09T05:25:55.228Z,91.90
2019-02-09T05:27:11.724Z,91.90
2019-02-09T05:28:28.614Z,92.10
2019-02-09T05:29:45.530Z,92.20
2019-02-09T05:31:02.103Z,92.30
2019-02-09T05:32:18.579Z,92.40
2019-02-09T05:33:35.029Z,92.40
2019-02-09T05:34:52.106Z,92.40
2019-02-09T05:36:09.022Z,92.50
2019-02-09T05:37:26.199Z,92.60
2019-02-09T05:38:42.600Z,92.60
2019-02-09T05:39:59.652Z,92.60
2019-02-09T05:41:16.492Z,92.70
2019-02-09T05:42:32.798Z,92.70
2019-02-09T05:43:49.084Z,92.80
2019-02-09T05:45:05.658Z,92.90
2019-02-09T05:46:22.718Z,92.90
2019-02-09T05:47:39.299Z,92.90
2019-02-09T05:48:56.177Z,93.00
2019-02-09T05:50:12.772Z,92.90
2019-02-09T05:51:29.642Z,92.90
2019-02-09T05:52:46.571Z,93.00
2019-02-09T05:54:03.121Z,93.00
2019-02-09T05:55:19.512Z,93.00
2019-02-09T05:56:35.931Z,93.00
2019-02-09T05:57:53.160Z,93.10
2019-02-09T05:59:09.538Z,93.10
2019-02-09T06:00:31.710Z,93.10
2019-02-09T06:01:48.256Z,93.20
2019-02-09T06:03:04.802Z,93.20
2019-02-09T06:04:21.288Z,93.20
2019-02-09T06:05:37.769Z,93.30
2019-02-09T06:06:58.029Z,93.30
2019-02-09T06:08:14.660Z,93.30
2019-02-09T06:09:30.894Z,93.40
2019-02-09T06:10:47.282Z,93.30
2019-02-09T06:12:03.737Z,93.30
2019-02-09T06:13:20.710Z,93.20
2019-02-09T06:14:37.720Z,93.20
2019-02-09T06:15:54.350Z,93.10
2019-02-09T06:17:10.874Z,93.20
2019-02-09T06:18:27.305Z,93.10
2019-02-09T06:19:44.214Z,93.10
2019-02-09T06:21:01.054Z,93.10
2019-02-09T06:22:17.512Z,93.10
2019-02-09T06:23:34.031Z,93.00
2019-02-09T06:24:50.712Z,93.00
2019-02-09T06:26:07.281Z,92.90
2019-02-09T06:27:23.750Z,92.90
2019-02-09T06:28:40.498Z,92.80
2019-02-09T06:29:57.048Z,92.80
2019-02-09T06:31:14.017Z,92.70
2019-02-09T06:32:30.329Z,92.70
2019-02-09T06:33:46.833Z,92.60
2019-02-09T06:35:03.521Z,92.50
2019-02-09T06:36:20.028Z,92.40
2019-02-09T06:37:36.542Z,92.40
2019-02-09T06:38:52.930Z,92.40
2019-02-09T06:40:09.532Z,92.30
2019-02-09T06:41:25.862Z,92.20
2019-02-09T06:42:42.460Z,92.20
2019-02-09T06:43:59.017Z,92.20
2019-02-09T06:45:15.339Z,92.20
2019-02-09T06:46:31.948Z,92.20
2019-02-09T06:47:48.349Z,92.20
2019-02-09T06:49:04.827Z,92.10
2019-02-09T06:50:21.465Z,92.00
2019-02-09T06:51:36.653Z,91.90
2019-02-09T06:52:53.737Z,91.80
2019-02-09T06:54:10.477Z,91.60
2019-02-09T06:55:27.632Z,91.50
2019-02-09T06:56:44.021Z,91.40
2019-02-09T06:58:00.707Z,91.30
2019-02-09T06:59:17.447Z,91.20
2019-02-09T07:00:34.145Z,91.20
2019-02-09T07:01:50.394Z,91.20
2019-02-09T07:03:07.133Z,91.00
2019-02-09T07:04:24.339Z,91.00
2019-02-09T07:05:40.604Z,90.90
2019-02-09T07:06:56.924Z,90.80
2019-02-09T07:08:13.590Z,90.60
2019-02-09T07:09:30.053Z,90.40
2019-02-09T07:10:47.253Z,90.20
2019-02-09T07:12:03.628Z,90.00
2019-02-09T07:13:20.000Z,89.60
2019-02-09T07:14:36.453Z,88.40
2019-02-09T07:15:53.184Z,87.90
2019-02-09T07:17:10.928Z,86.60
2019-02-09T07:18:27.453Z,84.80
2019-02-09T07:19:42.604Z,82.40
2019-02-09T07:21:06.674Z,79.90
2019-02-09T07:22:23.871Z,77.00
2019-02-09T07:23:40.479Z,74.30
2019-02-09T07:24:57.592Z,72.20
2019-02-09T07:26:14.149Z,69.90
2019-02-09T07:27:30.631Z,67.30
2019-02-09T07:28:46.993Z,65.90
2019-02-09T07:30:03.513Z,65.30
2019-02-09T07:31:20.189Z,64.80
2019-02-09T07:32:37.248Z,63.90
2019-02-09T07:33:53.472Z,63.10
2019-02-09T07:35:10.007Z,62.00
2019-02-09T07:36:26.917Z,61.10
2019-02-09T07:37:43.468Z,61.00
2019-02-09T07:38:59.896Z,61.10
2019-02-09T07:40:15.402Z,60.40
2019-02-09T07:41:39.558Z,58.20
2019-02-09T07:42:56.170Z,57.40
2019-02-09T07:44:12.592Z,56.40
2019-02-09T07:45:27.732Z,55.40
2019-02-09T07:46:51.835Z,53.40
2019-02-09T07:48:09.064Z,51.30
2019-02-09T07:49:25.923Z,49.20
2019-02-09T07:50:42.328Z,47.10
2019-02-09T07:51:59.244Z,44.80
2019-02-09T07:53:15.753Z,44.10
2019-02-09T07:54:32.269Z,42.80
2019-02-09T07:55:49.422Z,42.10
2019-02-09T07:57:04.701Z,41.10
2019-02-09T07:58:28.787Z,40.00
2019-02-09T07:59:52.901Z,38.70
2019-02-09T08:01:11.526Z,37.10
2019-02-09T08:02:29.124Z,35.90
2019-02-09T08:03:45.699Z,35.40
2019-02-09T08:05:02.040Z,33.80
2019-02-09T08:06:18.801Z,33.30
2019-02-09T08:07:35.198Z,32.70
2019-02-09T08:08:52.208Z,32.40
2019-02-09T08:10:09.065Z,31.60
2019-02-09T08:11:25.592Z,31.00
2019-02-09T08:12:41.893Z,30.60
2019-02-09T08:13:58.976Z,30.20
2019-02-09T08:15:09.113Z,29.70
2019-02-09T08:16:26.033Z,29.20
2019-02-09T08:17:41.225Z,28.90
2019-02-09T08:19:05.320Z,28.40
2019-02-09T08:20:21.826Z,27.70
2019-02-09T08:21:38.588Z,27.80
2019-02-09T08:22:55.095Z,27.70
2019-02-09T08:24:11.799Z,27.40
2019-02-09T08:25:28.199Z,27.30
2019-02-09T08:26:44.758Z,27.00
2019-02-09T08:28:01.181Z,27.20
2019-02-09T08:29:18.069Z,27.10
2019-02-09T08:30:34.572Z,26.90
2019-02-09T08:31:51.844Z,27.20
2019-02-09T08:33:09.907Z,26.80
2019-02-09T08:34:27.152Z,27.10
2019-02-09T08:35:43.516Z,27.90
2019-02-09T08:36:59.871Z,27.70
2019-02-09T08:38:16.257Z,27.30
2019-02-09T08:39:33.401Z,27.70
2019-02-09T08:40:49.990Z,28.10
2019-02-09T08:42:06.494Z,29.20
2019-02-09T08:43:22.829Z,30.20
2019-02-09T08:44:39.867Z,31.40
2019-02-09T08:45:56.361Z,32.60
2019-02-09T08:47:13.212Z,33.30
2019-02-09T08:48:29.600Z,34.90
2019-02-09T08:49:46.149Z,36.00
2019-02-09T08:51:02.534Z,36.40
2019-02-09T08:52:19.205Z,37.50
2019-02-09T08:53:36.384Z,38.40
2019-02-09T08:54:52.708Z,39.10
2019-02-09T08:56:09.314Z,39.60
2019-02-09T08:57:26.381Z,40.50
2019-02-09T08:58:42.858Z,41.30
2019-02-09T08:59:59.459Z,42.00
2019-02-09T09:01:16.662Z,42.70
2019-02-09T09:02:33.669Z,43.10
2019-02-09T09:03:50.569Z,44.00
2019-02-09T09:05:09.853Z,44.60
2019-02-09T09:06:25.992Z,45.30
2019-02-09T09:07:42.321Z,45.10
2019-02-09T09:09:00.744Z,44.40
2019-02-09T09:10:18.904Z,43.20
2019-02-09T09:11:35.316Z,42.30
2019-02-09T09:12:52.201Z,40.90
2019-02-09T09:14:08.742Z,39.10
2019-02-09T09:15:25.716Z,37.10
2019-02-09T09:16:42.380Z,35.60
2019-02-09T09:17:58.872Z,33.50
2019-02-09T09:19:15.335Z,32.80
2019-02-09T09:20:31.848Z,32.20
2019-02-09T09:21:48.556Z,31.50
2019-02-09T09:23:03.928Z,31.30
2019-02-09T09:24:28.407Z,31.60
2019-02-09T09:25:45.834Z,32.20
2019-02-09T09:27:02.350Z,32.90
2019-02-09T09:28:18.744Z,33.60
2019-02-09T09:29:35.754Z,33.80
2019-02-09T09:30:52.127Z,33.20
2019-02-09T09:32:09.181Z,32.30
2019-02-09T09:33:25.557Z,31.80
2019-02-09T09:34:42.065Z,32.30
2019-02-09T09:35:58.639Z,32.00
2019-02-09T09:37:15.415Z,31.80
2019-02-09T09:38:32.805Z,32.00
2019-02-09T09:39:49.455Z,31.40
2019-02-09T09:41:06.628Z,32.30
2019-02-09T09:42:23.432Z,33.00
2019-02-09T09:43:40.761Z,32.70
2019-02-09T09:44:57.321Z,33.00
2019-02-09T09:46:14.421Z,34.10
2019-02-09T09:47:30.769Z,34.40
2019-02-09T09:48:47.727Z,33.30
2019-02-09T09:50:04.201Z,33.90
2019-02-09T09:51:20.916Z,34.40
2019-02-09T09:52:37.960Z,34.40
2019-02-09T09:53:55.265Z,33.00
2019-02-09T09:55:12.549Z,32.50
2019-02-09T09:56:29.230Z,32.50
2019-02-09T09:57:47.432Z,32.30
2019-02-09T09:59:04.046Z,32.40
2019-02-09T10:00:20.537Z,33.50
2019-02-09T10:01:36.921Z,34.90
2019-02-09T10:02:53.306Z,36.00
2019-02-09T10:04:10.289Z,36.20
2019-02-09T10:05:25.559Z,36.70
2019-02-09T10:06:49.673Z,38.00
2019-02-09T10:08:06.015Z,38.80
2019-02-09T10:09:22.473Z,39.70
2019-02-09T10:10:39.536Z,40.70
2019-02-09T10:11:56.200Z,41.10
2019-02-09T10:13:12.919Z,41.30
2019-02-09T10:14:30.125Z,41.80
2019-02-09T10:15:46.620Z,42.70
2019-02-09T10:17:03.423Z,42.90
2019-02-09T10:18:20.092Z,43.10
2019-02-09T10:19:37.609Z,43.40
2019-02-09T10:20:54.182Z,44.00
2019-02-09T10:22:10.718Z,44.50
2019-02-09T10:23:27.154Z,44.10
2019-02-09T10:24:43.827Z,44.40
2019-02-09T10:26:01.136Z,45.60
2019-02-09T10:27:18.606Z,45.70
2019-02-09T10:28:34.098Z,45.50
2019-02-09T10:29:50.682Z,45.20
2019-02-09T10:31:09.067Z,44.80
2019-02-09T10:32:25.881Z,44.60
2019-02-09T10:33:43.130Z,44.30
2019-02-09T10:34:59.653Z,44.70
2019-02-09T10:36:16.584Z,44.40
2019-02-09T10:37:34.061Z,44.50
2019-02-09T10:38:50.769Z,44.50
2019-02-09T10:40:08.067Z,44.40
2019-02-09T10:41:25.566Z,44.20
2019-02-09T10:42:42.237Z,44.30
2019-02-09T10:43:59.925Z,44.60
2019-02-09T10:45:16.447Z,45.00
2019-02-09T10:46:33.090Z,44.90
2019-02-09T10:47:49.720Z,44.10
2019-02-09T10:49:06.441Z,44.40
2019-02-09T10:50:24.005Z,45.10
2019-02-09T10:51:41.728Z,45.50
2019-02-09T10:52:58.958Z,45.80
2019-02-09T10:54:15.504Z,45.90
2019-02-09T10:55:33.081Z,46.20
2019-02-09T10:56:50.050Z,46.30
2019-02-09T10:58:07.558Z,46.90
2019-02-09T10:59:24.063Z,47.30
2019-02-09T11:00:40.578Z,47.40
2019-02-09T11:01:58.121Z,47.70
2019-02-09T11:03:14.762Z,47.90
2019-02-09T11:04:32.131Z,47.70
2019-02-09T11:05:48.468Z,48.20
2019-02-09T11:07:05.347Z,47.80
2019-02-09T11:08:21.968Z,47.50
2019-02-09T11:09:38.500Z,48.30
2019-02-09T11:10:55.004Z,49.30
2019-02-09T11:12:11.590Z,49.70
2019-02-09T11:13:27.938Z,49.90
2019-02-09T11:14:44.373Z,49.40
2019-02-09T11:16:01.615Z,49.00
2019-02-09T11:17:18.266Z,48.60
2019-02-09T11:18:35.555Z,48.10
2019-02-09T11:19:52.246Z,48.00
2019-02-09T11:21:07.724Z,47.40
2019-02-09T11:22:32.274Z,48.20
2019-02-09T11:23:49.218Z,48.10
2019-02-09T11:25:06.651Z,46.90
2019-02-09T11:26:23.282Z,46.30
2019-02-09T11:27:39.936Z,48.10
2019-02-09T11:28:56.545Z,48.70
2019-02-09T11:30:12.995Z,48.40
2019-02-09T11:31:29.458Z,48.40
2019-02-09T11:32:45.967Z,49.30
2019-02-09T11:34:03.343Z,50.00
2019-02-09T11:35:20.072Z,50.00
2019-02-09T11:36:36.740Z,49.60
2019-02-09T11:37:53.985Z,49.00
2019-02-09T11:39:11.245Z,48.90
2019-02-09T11:40:28.048Z,49.10
2019-02-09T11:41:44.520Z,48.90
2019-02-09T11:43:01.719Z,48.90
2019-02-09T11:44:18.199Z,49.40
2019-02-09T11:45:34.876Z,49.90
2019-02-09T11:46:51.292Z,49.80
2019-02-09T11:48:07.737Z,49.80
2019-02-09T11:49:24.111Z,49.40
2019-02-09T11:50:40.594Z,49.90
2019-02-09T11:51:57.372Z,50.20
2019-02-09T11:53:16.408Z,50.30
2019-02-09T11:54:33.093Z,49.90
2019-02-09T11:55:49.869Z,49.50
2019-02-09T11:57:06.462Z,49.60
2019-02-09T11:58:22.748Z,48.70
2019-02-09T11:59:39.538Z,48.30
2019-02-09T12:00:55.909Z,48.30
2019-02-09T12:02:13.141Z,49.30
2019-02-09T12:03:29.725Z,49.80
2019-02-09T12:04:46.952Z,49.10
2019-02-09T12:06:03.922Z,48.80
2019-02-09T12:07:20.753Z,48.30
2019-02-09T12:08:37.316Z,48.10
2019-02-09T12:09:54.605Z,47.70
2019-02-09T12:11:11.226Z,48.10
2019-02-09T12:12:27.893Z,47.90
2019-02-09T12:13:45.069Z,48.40
2019-02-09T12:15:01.421Z,48.40
2019-02-09T12:16:17.892Z,48.50
2019-02-09T12:17:34.521Z,48.10
2019-02-09T12:18:50.853Z,48.10
2019-02-09T12:20:07.924Z,48.30
2019-02-09T12:21:25.056Z,48.20
2019-02-09T12:22:41.492Z,47.30
2019-02-09T12:23:58.136Z,47.60
2019-02-09T12:25:14.769Z,48.40
2019-02-09T12:26:31.119Z,48.10
2019-02-09T12:27:47.555Z,48.10
2019-02-09T12:29:04.203Z,48.40
2019-02-09T12:30:21.204Z,49.00
2019-02-09T12:31:37.660Z,48.40
2019-02-09T12:32:54.975Z,48.80
2019-02-09T12:34:12.156Z,49.00
2019-02-09T12:35:29.361Z,49.50
2019-02-09T12:36:45.626Z,49.00
2019-02-09T12:38:02.364Z,49.40
2019-02-09T12:39:18.790Z,49.60
2019-02-09T12:40:35.198Z,49.80
2019-02-09T12:41:52.401Z,49.30
2019-02-09T12:43:08.660Z,49.40
2019-02-09T12:44:25.098Z,49.00
2019-02-09T12:45:42.494Z,48.70
2019-02-09T12:46:59.193Z,48.50
2019-02-09T12:48:15.995Z,48.10
2019-02-09T12:49:33.486Z,48.30
2019-02-09T12:50:49.770Z,48.40
2019-02-09T12:52:06.931Z,49.40
2019-02-09T12:53:23.257Z,50.20
2019-02-09T12:54:40.401Z,50.10
2019-02-09T12:55:56.993Z,50.30
2019-02-09T12:57:13.574Z,50.90
2019-02-09T12:58:29.957Z,51.40
2019-02-09T12:59:46.335Z,51.80
2019-02-09T13:01:02.713Z,52.60
2019-02-09T13:02:19.369Z,52.40
2019-02-09T13:03:36.494Z,52.80
2019-02-09T13:04:53.497Z,53.30
2019-02-09T13:06:10.269Z,53.70
2019-02-09T13:07:26.751Z,53.30
2019-02-09T13:08:43.120Z,53.50
2019-02-09T13:10:00.196Z,53.80
2019-02-09T13:11:17.149Z,53.60
2019-02-09T13:12:34.720Z,53.70
2019-02-09T13:13:51.842Z,53.80
2019-02-09T13:15:08.345Z,53.60
2019-02-09T13:16:25.021Z,54.10
2019-02-09T13:17:41.574Z,54.30
2019-02-09T13:18:58.262Z,53.00
2019-02-09T13:20:14.797Z,52.40
2019-02-09T13:21:31.979Z,52.00
2019-02-09T13:22:48.470Z,52.00
2019-02-09T13:24:05.596Z,52.20
2019-02-09T13:25:22.045Z,52.20
2019-02-09T13:26:38.426Z,52.10
2019-02-09T13:27:54.731Z,51.70
2019-02-09T13:29:11.774Z,51.80
2019-02-09T13:30:28.285Z,52.70
2019-02-09T13:31:44.747Z,51.90
2019-02-09T13:32:59.956Z,50.50
2019-02-09T13:34:24.140Z,51.00
2019-02-09T13:35:41.174Z,51.40
2019-02-09T13:36:58.423Z,50.30
2019-02-09T13:38:15.217Z,49.80
2019-02-09T13:39:31.820Z,49.40
2019-02-09T13:40:48.305Z,49.60
2019-02-09T13:42:05.013Z,50.10
2019-02-09T13:43:22.196Z,50.80
2019-02-09T13:44:39.270Z,51.40
2019-02-09T13:45:55.474Z,50.80
2019-02-09T13:47:11.892Z,50.50
2019-02-09T13:48:27.175Z,51.40
2019-02-09T13:49:51.371Z,51.70
2019-02-09T13:51:08.002Z,52.00
2019-02-09T13:52:24.862Z,51.10
2019-02-09T13:53:41.411Z,51.50
2019-02-09T13:54:56.636Z,52.00
2019-02-09T13:56:20.721Z,51.70
2019-02-09T13:57:37.133Z,51.40
2019-02-09T13:58:53.723Z,51.40
2019-02-09T14:00:10.850Z,51.90
2019-02-09T14:01:27.786Z,52.80
2019-02-09T14:02:44.255Z,53.20
2019-02-09T14:04:00.721Z,53.80
2019-02-09T14:05:17.715Z,53.90
2019-02-09T14:06:34.117Z,54.00
2019-02-09T14:07:50.549Z,54.30
2019-02-09T14:09:07.628Z,53.30
2019-02-09T14:10:25.169Z,53.00
2019-02-09T14:11:41.469Z,52.80
2019-02-09T14:12:58.417Z,52.90
2019-02-09T14:14:15.180Z,53.20
2019-02-09T14:15:32.348Z,53.50
2019-02-09T14:16:49.473Z,53.60
2019-02-09T14:18:06.736Z,53.70
2019-02-09T14:19:23.171Z,53.80
2019-02-09T14:20:39.539Z,54.60
2019-02-09T14:21:56.047Z,54.70
2019-02-09T14:23:12.763Z,54.80
2019-02-09T14:24:29.878Z,54.70
2019-02-09T14:25:46.207Z,54.60
2019-02-09T14:27:02.752Z,55.10
2019-02-09T14:28:20.977Z,54.60
2019-02-09T14:29:37.407Z,54.50
2019-02-09T14:30:53.769Z,54.40
2019-02-09T14:32:10.351Z,54.50
2019-02-09T14:33:26.777Z,54.50
2019-02-09T14:34:43.711Z,54.30
2019-02-09T14:36:00.242Z,54.10
2019-02-09T14:37:17.440Z,54.40
2019-02-09T14:38:34.066Z,54.70
2019-02-09T14:39:51.194Z,54.40
2019-02-09T14:41:07.878Z,54.50
2019-02-09T14:42:24.324Z,54.80
2019-02-09T14:43:40.663Z,55.30
2019-02-09T14:44:57.034Z,55.30
2019-02-09T14:46:14.231Z,55.20
2019-02-09T14:47:30.682Z,55.30
2019-02-09T14:48:47.413Z,56.00
2019-02-09T14:50:10.978Z,56.90
2019-02-09T14:51:21.993Z,56.50
2019-02-09T14:52:38.365Z,57.10
2019-02-09T14:53:54.970Z,57.20
2019-02-09T14:55:12.085Z,57.30
2019-02-09T14:56:28.690Z,58.00
2019-02-09T14:57:45.028Z,58.20
2019-02-09T14:59:01.485Z,58.60
2019-02-09T15:00:17.944Z,58.50
2019-02-09T15:01:34.649Z,58.90
2019-02-09T15:02:53.994Z,59.10
2019-02-09T15:04:09.855Z,59.20
2019-02-09T15:05:26.722Z,59.40
2019-02-09T15:06:43.341Z,59.80
2019-02-09T15:08:00.116Z,60.00
2019-02-09T15:09:17.345Z,60.10
2019-02-09T15:10:33.819Z,60.30
2019-02-09T15:11:50.426Z,60.50
2019-02-09T15:13:07.384Z,60.90
2019-02-09T15:14:24.065Z,60.90
2019-02-09T15:15:41.381Z,61.30
2019-02-09T15:17:05.345Z,61.40
2019-02-09T15:18:17.150Z,61.20
2019-02-09T15:19:33.797Z,61.20
2019-02-09T15:20:50.853Z,61.40
2019-02-09T15:22:07.305Z,61.50
2019-02-09T15:23:24.456Z,61.60
2019-02-09T15:24:41.449Z,61.30
2019-02-09T15:25:58.032Z,61.00
2019-02-09T15:27:15.325Z,61.20
2019-02-09T15:28:30.648Z,61.30
2019-02-09T15:29:54.855Z,61.30
2019-02-09T15:31:19.036Z,61.30
2019-02-09T15:32:36.228Z,61.30
2019-02-09T15:33:52.643Z,61.40
2019-02-09T15:35:09.514Z,61.00
2019-02-09T15:36:27.669Z,61.40
2019-02-09T15:37:44.362Z,61.90
2019-02-09T15:39:00.776Z,62.00
2019-02-09T15:40:19.183Z,62.20
2019-02-09T15:41:36.524Z,62.30
2019-02-09T15:42:52.979Z,62.00
2019-02-09T15:44:10.242Z,61.80
2019-02-09T15:45:26.976Z,62.00
2019-02-09T15:46:43.465Z,62.30
2019-02-09T15:48:00.146Z,62.40
2019-02-09T15:49:17.444Z,62.50
2019-02-09T15:50:33.859Z,62.70
2019-02-09T15:51:50.313Z,62.90
2019-02-09T15:53:06.807Z,62.70
2019-02-09T15:54:23.988Z,62.60
2019-02-09T15:55:41.718Z,62.60
2019-02-09T15:56:58.295Z,62.70
2019-02-09T15:58:14.668Z,62.70
2019-02-09T15:59:31.078Z,62.60
2019-02-09T16:00:48.296Z,62.40
2019-02-09T16:02:04.778Z,62.50
2019-02-09T16:03:21.897Z,62.90
2019-02-09T16:04:38.489Z,63.00
2019-02-09T16:05:54.985Z,63.10